Time;durP1;ratioP1;P1;durP2;ratioP2;P2;SDS_P1;SDS_P2;PMS_P1;PMS_P2;Temp;Humidity;BMP_temperature;BMP_pressure;BME280_temperature;BME280_humidity;BME280_pressure;Samples;Min_cycle;Max_cycle;Signal;HPM_P1;HPM_P2
2022/10/01 00:01:01;;;;;;;9.77;6.50;;;12.40;71.30;;;;;;5092253;28;20067;-67
2022/10/01 00:03:28;;;;;;;9.05;6.60;;;12.40;71.50;;;;;;5074990;28;20711;-68
2022/10/01 00:06:08;;;;;;;6.85;5.72;;;12.40;71.80;;;;;;5091275;28;20547;-67
2022/10/01 00:08:33;;;;;;;8.35;6.15;;;12.30;71.90;;;;;;5092777;28;20040;-67
2022/10/01 00:11:00;;;;;;;8.02;6.80;;;12.30;72.00;;;;;;5094300;28;20050;-67
2022/10/01 00:13:28;;;;;;;8.07;6.65;;;12.30;72.20;;;;;;5093230;28;20463;-67
2022/10/01 00:15:54;;;;;;;8.52;6.45;;;12.20;72.40;;;;;;5093251;28;20100;-67
2022/10/01 00:18:19;;;;;;;9.85;7.72;;;12.20;72.50;;;;;;5076261;28;20043;-67
2022/10/01 00:20:45;;;;;;;7.45;6.70;;;12.20;72.70;;;;;;5059893;28;20063;-69
2022/10/01 00:23:12;;;;;;;10.13;7.32;;;12.20;72.70;;;;;;5094127;28;20044;-68
2022/10/01 00:25:38;;;;;;;7.50;6.72;;;12.20;72.80;;;;;;5093507;28;20130;-66
2022/10/01 00:28:04;;;;;;;11.27;8.05;;;12.20;73.10;;;;;;5108000;28;20052;-66
2022/10/01 00:30:30;;;;;;;10.90;7.20;;;12.10;73.00;;;;;;5075217;28;20390;-66
2022/10/01 00:32:56;;;;;;;8.40;7.57;;;12.10;73.20;;;;;;5076368;28;20585;-66
2022/10/01 00:35:22;;;;;;;8.65;7.10;;;12.10;73.50;;;;;;5092360;28;20023;-65
2022/10/01 00:37:49;;;;;;;9.70;8.48;;;12.10;73.30;;;;;;5092273;28;20433;-65
2022/10/01 00:40:18;;;;;;;10.48;8.13;;;12.10;73.40;;;;;;5092688;28;20064;-67
2022/10/01 00:42:44;;;;;;;11.35;8.68;;;12.10;73.60;;;;;;5092829;28;20071;-67
2022/10/01 00:45:11;;;;;;;23.17;8.85;;;12.10;73.70;;;;;;5092192;28;20748;-67
2022/10/01 00:47:41;;;;;;;9.05;8.15;;;12.10;73.90;;;;;;5075983;28;20534;-66
2022/10/01 00:50:15;;;;;;;10.02;8.50;;;12.00;73.90;;;;;;5093080;28;20096;-69
2022/10/01 00:52:44;;;;;;;10.25;8.05;;;12.00;74.10;;;;;;5093063;28;20046;-66
2022/10/01 00:55:19;;;;;;;10.48;8.43;;;12.00;74.20;;;;;;5093355;28;20031;-67
2022/10/01 00:57:45;;;;;;;11.10;8.63;;;12.00;74.30;;;;;;5090157;28;20039;-68
2022/10/01 01:00:13;;;;;;;10.48;9.23;;;11.90;74.40;;;;;;5077520;28;20039;-69
2022/10/01 01:02:40;;;;;;;9.98;8.15;;;11.90;74.40;;;;;;5095403;28;20402;-69
2022/10/01 01:05:07;;;;;;;9.80;8.77;;;11.90;74.70;;;;;;5092935;28;20074;-68
2022/10/01 01:07:34;;;;;;;9.43;8.50;;;11.90;74.80;;;;;;5093418;28;20036;-68
2022/10/01 01:10:01;;;;;;;10.68;9.07;;;11.90;74.90;;;;;;5060441;28;20044;-68
2022/10/01 01:12:44;;;;;;;10.02;8.77;;;11.80;74.90;;;;;;5093910;28;20091;-68
2022/10/01 01:15:28;;;;;;;10.05;8.73;;;11.80;75.20;;;;;;5092565;28;20031;-67
2022/10/01 01:18:23;;;;;;;8.68;7.78;;;11.80;75.10;;;;;;5091878;28;20487;-68
2022/10/01 01:21:00;;;;;;;10.00;8.85;;;11.80;75.10;;;;;;5111509;28;20502;-68
2022/10/01 01:23:35;;;;;;;11.07;9.30;;;11.80;75.40;;;;;;5087783;28;20551;-69
2022/10/01 01:26:30;;;;;;;11.38;8.55;;;11.80;75.60;;;;;;5092752;28;20398;-70
2022/10/01 01:29:17;;;;;;;13.63;9.05;;;11.80;75.60;;;;;;5059617;28;20046;-69
2022/10/01 01:31:45;;;;;;;10.88;8.43;;;11.80;75.80;;;;;;5094366;28;20027;-69
2022/10/01 01:34:19;;;;;;;9.52;8.13;;;11.70;75.80;;;;;;5095464;28;20031;-68
2022/10/01 01:36:53;;;;;;;9.00;8.10;;;11.80;75.90;;;;;;5092465;28;20035;-68
2022/10/01 01:39:20;;;;;;;8.80;7.10;;;11.80;76.10;;;;;;5090875;27;20050;-67
2022/10/01 01:41:51;;;;;;;9.30;8.32;;;11.80;76.00;;;;;;5095391;28;20048;-69
2022/10/01 01:44:24;;;;;;;8.98;6.80;;;11.70;76.00;;;;;;5091685;28;20044;-68
2022/10/01 01:46:55;;;;;;;7.72;6.90;;;11.80;76.10;;;;;;5091713;28;20048;-69
2022/10/01 01:49:22;;;;;;;7.78;6.70;;;11.80;76.10;;;;;;5093774;28;20036;-70
2022/10/01 01:52:00;;;;;;;8.10;6.95;;;11.80;76.20;;;;;;5093624;27;20061;-69
2022/10/01 01:54:29;;;;;;;8.07;6.88;;;11.80;76.30;;;;;;5091877;28;20048;-68
2022/10/01 01:56:57;;;;;;;7.30;6.18;;;11.80;76.10;;;;;;5092378;28;20036;-69
2022/10/01 01:59:23;;;;;;;7.63;6.30;;;11.80;76.30;;;;;;5094282;28;20504;-67
2022/10/01 02:01:50;;;;;;;8.75;7.00;;;11.80;76.20;;;;;;5080398;27;20118;-70
2022/10/01 02:04:33;;;;;;;8.82;7.25;;;11.80;76.40;;;;;;5077136;28;20058;-71
2022/10/01 02:07:17;;;;;;;8.00;7.20;;;11.80;76.50;;;;;;5091406;27;20442;-73
2022/10/01 02:09:54;;;;;;;8.70;6.75;;;11.80;76.70;;;;;;5096659;28;20096;-79
2022/10/01 02:12:23;;;;;;;6.95;6.20;;;11.80;76.50;;;;;;5076999;28;20092;-81
2022/10/01 02:15:01;;;;;;;8.65;6.63;;;11.80;76.60;;;;;;5090504;28;20036;-86
2022/10/01 02:17:49;;;;;;;7.97;6.78;;;11.80;76.70;;;;;;5074232;28;20526;-75
2022/10/01 02:20:41;;;;;;;7.47;5.75;;;11.80;76.70;;;;;;5093872;28;20078;-75
2022/10/01 02:23:10;;;;;;;5.90;5.30;;;11.80;76.80;;;;;;5094399;28;20504;-74
2022/10/01 02:25:47;;;;;;;8.60;6.32;;;11.80;77.10;;;;;;5075791;28;20048;-74
2022/10/01 02:28:17;;;;;;;6.43;5.82;;;11.80;76.70;;;;;;5094413;28;20043;-74
2022/10/01 02:30:44;;;;;;;7.50;5.85;;;11.80;76.70;;;;;;5094750;28;20536;-74
2022/10/01 02:33:14;;;;;;;8.45;6.18;;;11.80;76.80;;;;;;5094900;28;20058;-74
2022/10/01 02:35:42;;;;;;;6.68;5.50;;;11.90;76.80;;;;;;5077475;28;20479;-73
2022/10/01 02:38:09;;;;;;;5.70;5.10;;;11.90;76.90;;;;;;5094591;28;20048;-73
2022/10/01 02:40:39;;;;;;;6.03;4.80;;;11.90;76.90;;;;;;5093273;28;20457;-74
2022/10/01 02:43:16;;;;;;;5.80;4.38;;;11.90;77.00;;;;;;5091420;28;20039;-74
2022/10/01 02:45:46;;;;;;;7.05;4.90;;;11.90;76.80;;;;;;5094856;28;20039;-73
2022/10/01 02:48:16;;;;;;;4.82;4.32;;;11.90;76.90;;;;;;5091569;28;20232;-74
2022/10/01 02:50:53;;;;;;;5.50;4.88;;;11.90;76.80;;;;;;5092110;28;20506;-75
2022/10/01 02:53:28;;;;;;;4.78;4.25;;;11.90;76.90;;;;;;5095190;28;20028;-76
2022/10/01 02:55:57;;;;;;;4.85;3.80;;;11.90;77.30;;;;;;5076692;28;20475;-75
2022/10/01 02:58:22;;;;;;;5.43;4.03;;;12.00;76.90;;;;;;5095628;28;21780;-74
2022/10/01 03:00:48;;;;;;;3.78;3.38;;;12.00;76.90;;;;;;5099543;27;20050;-73
2022/10/01 03:03:14;;;;;;;4.53;3.28;;;12.00;76.90;;;;;;5095619;28;20123;-73
2022/10/01 03:05:39;;;;;;;4.95;3.65;;;12.00;76.90;;;;;;5079294;28;20042;-73
2022/10/01 03:08:05;;;;;;;3.90;3.50;;;12.00;77.00;;;;;;5094434;28;20398;-73
2022/10/01 03:10:31;;;;;;;3.72;3.30;;;12.00;76.90;;;;;;5096293;27;20035;-74
2022/10/01 03:12:59;;;;;;;4.60;3.58;;;12.00;76.90;;;;;;5080565;27;20126;-74
2022/10/01 03:15:24;;;;;;;5.10;3.08;;;12.10;77.00;;;;;;5080274;28;20102;-74
2022/10/01 03:17:51;;;;;;;3.42;2.92;;;12.00;76.90;;;;;;5102032;27;20068;-74
2022/10/01 03:20:17;;;;;;;3.38;2.97;;;12.10;77.10;;;;;;5107771;27;20050;-74
2022/10/01 03:22:46;;;;;;;4.60;3.45;;;12.10;77.00;;;;;;5085557;28;20051;-74
2022/10/01 03:25:13;;;;;;;4.18;3.33;;;12.10;77.10;;;;;;5096116;28;20200;-74
2022/10/01 03:27:38;;;;;;;3.78;3.33;;;12.10;77.00;;;;;;5073775;28;20065;-74
2022/10/01 03:30:05;;;;;;;3.97;2.70;;;12.10;77.00;;;;;;5091072;27;20035;-74
2022/10/01 03:32:31;;;;;;;3.83;2.95;;;12.10;77.10;;;;;;5074265;28;20036;-74
2022/10/01 03:34:57;;;;;;;3.90;2.83;;;12.10;77.10;;;;;;5060324;28;20100;-74
2022/10/01 03:37:23;;;;;;;3.03;2.47;;;12.10;77.20;;;;;;5093734;27;20054;-74
2022/10/01 03:39:48;;;;;;;6.15;3.05;;;12.10;77.20;;;;;;5088165;28;20065;-74
2022/10/01 03:42:15;;;;;;;4.72;3.00;;;12.10;77.20;;;;;;5075160;28;20036;-74
2022/10/01 03:44:41;;;;;;;4.68;2.63;;;12.10;77.30;;;;;;5093708;28;20050;-73
2022/10/01 03:47:07;;;;;;;3.90;2.85;;;12.10;77.30;;;;;;5090843;28;20398;-73
2022/10/01 03:49:33;;;;;;;3.42;2.60;;;12.20;77.30;;;;;;5092076;28;20398;-74
2022/10/01 03:51:59;;;;;;;3.30;2.90;;;12.20;77.20;;;;;;5056711;28;20039;-74
2022/10/01 03:54:25;;;;;;;4.53;2.42;;;12.20;77.20;;;;;;5092628;28;20160;-73
2022/10/01 03:56:51;;;;;;;3.92;2.85;;;12.20;77.30;;;;;;5054783;28;20127;-74
2022/10/01 03:59:17;;;;;;;3.45;2.42;;;12.20;77.20;;;;;;5087913;28;20051;-74
2022/10/01 04:01:42;;;;;;;3.63;2.63;;;12.20;77.20;;;;;;5085251;28;20040;-74
2022/10/01 04:04:08;;;;;;;5.30;2.72;;;12.20;77.20;;;;;;5091472;28;20445;-75
2022/10/01 04:06:34;;;;;;;3.47;2.28;;;12.20;77.20;;;;;;5069991;28;20092;-75
2022/10/01 04:09:00;;;;;;;2.95;2.08;;;12.20;77.20;;;;;;5085298;28;20027;-74
2022/10/01 04:11:25;;;;;;;3.38;1.60;;;12.20;77.40;;;;;;5071938;28;20148;-75
2022/10/01 04:13:51;;;;;;;3.00;1.85;;;12.20;77.30;;;;;;5073545;28;20119;-75
2022/10/01 04:16:17;;;;;;;3.55;2.08;;;12.20;77.30;;;;;;5072103;28;20058;-75
2022/10/01 04:18:43;;;;;;;2.20;1.55;;;12.20;77.30;;;;;;5070562;28;20031;-75
2022/10/01 04:21:08;;;;;;;1.98;1.50;;;12.20;77.30;;;;;;5070726;28;20032;-74
2022/10/01 04:23:34;;;;;;;2.90;1.83;;;12.20;77.30;;;;;;5069002;28;20706;-75
2022/10/01 04:26:01;;;;;;;1.95;1.63;;;12.30;77.50;;;;;;5090178;28;21620;-75
2022/10/01 04:28:27;;;;;;;2.33;1.30;;;12.30;77.40;;;;;;5087652;28;20044;-75
2022/10/01 04:31:23;;;;;;;1.90;1.45;;;12.30;77.40;;;;;;5069829;28;20043;-75
2022/10/01 04:33:39;;;;;;;1.70;1.35;;;12.30;77.90;;;;;;5075882;28;20052;-75
2022/10/01 04:36:04;;;;;;;1.83;1.40;;;12.30;77.50;;;;;;5086923;28;20070;-74
2022/10/01 04:38:30;;;;;;;2.95;1.50;;;12.30;77.50;;;;;;5069191;28;20039;-74
2022/10/01 04:40:56;;;;;;;2.58;1.52;;;12.40;77.50;;;;;;5079336;28;20036;-75
2022/10/01 04:43:22;;;;;;;1.80;1.50;;;12.40;77.50;;;;;;5056766;28;20067;-75
2022/10/01 04:45:47;;;;;;;3.22;1.60;;;12.40;77.60;;;;;;5090729;28;20043;-74
2022/10/01 04:48:13;;;;;;;2.13;1.70;;;12.40;77.60;;;;;;5062718;27;20130;-75
2022/10/01 04:50:39;;;;;;;2.28;1.80;;;12.40;77.60;;;;;;5072234;27;20067;-74
2022/10/01 04:53:04;;;;;;;2.58;1.95;;;12.40;77.60;;;;;;5072849;28;20035;-75
2022/10/01 04:55:30;;;;;;;2.72;2.03;;;12.50;77.70;;;;;;5074154;27;20104;-75
2022/10/01 04:57:56;;;;;;;3.45;2.22;;;12.50;77.70;;;;;;5091690;28;20134;-74
2022/10/01 05:00:24;;;;;;;3.67;2.55;;;12.50;77.80;;;;;;5072380;28;20031;-75
2022/10/01 05:02:51;;;;;;;2.38;2.15;;;12.50;77.80;;;;;;5104839;27;20044;-74
2022/10/01 05:05:19;;;;;;;3.53;2.33;;;12.60;77.90;;;;;;5092488;28;20031;-74
2022/10/01 05:07:45;;;;;;;2.65;2.33;;;12.50;77.80;;;;;;5088390;27;20545;-74
2022/10/01 05:10:16;;;;;;;3.67;2.92;;;12.60;77.80;;;;;;5087683;27;20495;-74
2022/10/01 05:12:41;;;;;;;2.80;2.42;;;12.60;78.40;;;;;;5090344;28;20031;-74
2022/10/01 05:15:08;;;;;;;3.65;2.67;;;12.70;78.00;;;;;;5091146;28;20039;-74
2022/10/01 05:17:34;;;;;;;3.15;2.60;;;12.70;78.00;;;;;;5072936;28;20047;-75
2022/10/01 05:20:02;;;;;;;3.25;2.83;;;12.70;78.00;;;;;;5090492;28;20054;-74
2022/10/01 05:22:27;;;;;;;2.97;2.40;;;12.70;78.00;;;;;;5088059;28;20423;-74
2022/10/01 05:24:53;;;;;;;3.35;3.03;;;12.70;78.00;;;;;;5089750;28;20130;-74
2022/10/01 05:27:19;;;;;;;4.47;3.08;;;12.80;78.10;;;;;;5088300;28;20039;-72
2022/10/01 05:29:47;;;;;;;3.80;2.97;;;12.70;78.00;;;;;;5070726;28;20046;-74
2022/10/01 05:32:13;;;;;;;3.20;2.90;;;12.80;78.10;;;;;;5089750;28;20118;-74
2022/10/01 05:34:39;;;;;;;3.65;3.13;;;12.80;78.00;;;;;;5091928;28;20119;-74
2022/10/01 05:37:05;;;;;;;4.60;3.58;;;12.90;78.10;;;;;;5087823;28;20031;-74
2022/10/01 05:39:31;;;;;;;4.05;3.67;;;12.80;78.00;;;;;;5055899;27;20055;-74
2022/10/01 05:41:58;;;;;;;3.83;3.53;;;12.90;78.10;;;;;;5086947;28;20035;-74
2022/10/01 05:44:24;;;;;;;6.30;4.35;;;12.90;78.10;;;;;;5075159;27;20032;-74
2022/10/01 05:46:51;;;;;;;3.60;3.20;;;12.90;78.10;;;;;;5085435;28;20172;-74
2022/10/01 05:49:18;;;;;;;5.85;4.57;;;12.90;78.00;;;;;;5086496;28;20037;-73
2022/10/01 05:51:44;;;;;;;4.95;4.18;;;13.00;78.00;;;;;;5107273;27;20475;-74
2022/10/01 05:54:11;;;;;;;6.07;4.07;;;13.00;78.00;;;;;;5075983;27;20072;-73
2022/10/01 05:56:37;;;;;;;4.22;3.83;;;13.00;77.90;;;;;;5089282;28;20046;-74
2022/10/01 05:59:03;;;;;;;5.57;4.15;;;13.00;78.30;;;;;;5086603;28;20047;-74
2022/10/01 06:01:31;;;;;;;5.07;3.72;;;13.00;77.80;;;;;;5088286;28;20698;-74
2022/10/01 06:03:57;;;;;;;5.70;3.95;;;13.00;77.80;;;;;;5074082;27;20036;-74
2022/10/01 06:06:26;;;;;;;6.25;4.68;;;13.00;77.80;;;;;;5087942;28;20062;-73
2022/10/01 06:08:52;;;;;;;5.75;3.28;;;13.10;77.80;;;;;;5087609;28;20698;-73
2022/10/01 06:11:21;;;;;;;6.13;4.93;;;13.10;77.70;;;;;;5087680;28;20039;-73
2022/10/01 06:13:47;;;;;;;5.72;4.97;;;13.10;77.60;;;;;;5089804;28;20481;-75
2022/10/01 06:16:13;;;;;;;5.53;4.40;;;13.10;77.70;;;;;;5086853;27;20118;-73
2022/10/01 06:18:40;;;;;;;4.78;4.20;;;13.10;77.70;;;;;;5092610;27;20103;-72
2022/10/01 06:21:06;;;;;;;5.80;5.10;;;13.10;77.70;;;;;;5087466;28;20926;-72
2022/10/01 06:23:32;;;;;;;6.00;5.18;;;13.10;77.60;;;;;;5089666;28;20070;-72
2022/10/01 06:26:07;;;;;;;5.30;4.50;;;13.10;77.70;;;;;;5086208;28;20119;-73
2022/10/01 06:28:33;;;;;;;8.55;4.78;;;13.20;77.80;;;;;;5086017;28;20085;-74
2022/10/01 06:31:02;;;;;;;5.07;4.32;;;13.20;77.70;;;;;;5085682;28;20031;-72
2022/10/01 06:33:28;;;;;;;7.20;4.63;;;13.20;77.80;;;;;;5090806;28;20031;-72
2022/10/01 06:35:54;;;;;;;7.13;4.75;;;13.20;77.80;;;;;;5088318;28;20122;-73
2022/10/01 06:38:21;;;;;;;5.68;5.18;;;13.20;77.90;;;;;;5087259;28;21472;-73
2022/10/01 06:40:55;;;;;;;8.40;5.78;;;13.20;78.00;;;;;;5087440;28;20034;-73
2022/10/01 06:43:22;;;;;;;6.15;3.90;;;13.30;78.10;;;;;;5073015;27;20046;-73
2022/10/01 06:45:48;;;;;;;4.75;3.80;;;13.30;78.10;;;;;;5090064;27;20142;-73
2022/10/01 06:48:16;;;;;;;5.18;4.65;;;13.30;78.00;;;;;;5090456;28;20399;-73
2022/10/01 06:50:47;;;;;;;5.55;4.68;;;13.30;78.00;;;;;;5084831;27;20096;-73
2022/10/01 06:53:14;;;;;;;6.63;4.40;;;13.30;78.00;;;;;;5069969;27;20066;-74
2022/10/01 06:55:41;;;;;;;5.85;4.60;;;13.30;78.00;;;;;;5087318;28;20036;-73
2022/10/01 06:58:10;;;;;;;5.38;3.92;;;13.40;78.60;;;;;;5070892;28;20042;-75
2022/10/01 07:00:37;;;;;;;7.63;4.68;;;13.40;78.30;;;;;;5084982;28;20046;-74
2022/10/01 07:03:07;;;;;;;4.88;3.78;;;13.40;78.30;;;;;;5086440;28;20027;-74
2022/10/01 07:05:33;;;;;;;6.63;3.90;;;13.50;78.40;;;;;;5088273;28;20062;-74
2022/10/01 07:07:59;;;;;;;6.30;3.55;;;13.50;78.40;;;;;;5052232;28;20039;-73
2022/10/01 07:10:24;;;;;;;6.32;4.05;;;13.60;78.30;;;;;;5084936;28;20032;-73
2022/10/01 07:12:50;;;;;;;9.02;4.10;;;13.60;78.30;;;;;;5069637;28;20043;-73
2022/10/01 07:15:19;;;;;;;6.13;3.53;;;13.60;78.30;;;;;;5073284;28;20031;-73
2022/10/01 07:17:50;;;;;;;6.60;4.13;;;13.70;78.30;;;;;;5086490;28;20061;-73
2022/10/01 07:20:18;;;;;;;6.20;3.13;;;13.70;78.40;;;;;;5084863;28;20032;-73
2022/10/01 07:22:45;;;;;;;7.47;3.55;;;13.70;78.30;;;;;;5068422;28;20039;-73
2022/10/01 07:25:11;;;;;;;6.25;2.80;;;13.80;78.20;;;;;;5055108;28;20067;-73
2022/10/01 07:27:37;;;;;;;7.70;3.40;;;13.80;78.10;;;;;;5103815;28;20058;-73
2022/10/01 07:30:04;;;;;;;5.28;3.35;;;13.80;78.10;;;;;;5083147;28;20036;-73
2022/10/01 07:32:30;;;;;;;3.97;2.47;;;13.90;78.30;;;;;;5054648;28;20390;-73
2022/10/01 07:34:56;;;;;;;8.73;3.10;;;13.90;78.10;;;;;;5087712;27;20039;-73
2022/10/01 07:37:23;;;;;;;8.07;2.97;;;14.00;78.10;;;;;;5068872;28;20085;-73
2022/10/01 07:39:48;;;;;;;5.53;2.45;;;14.00;78.00;;;;;;5088736;28;20050;-73
2022/10/01 07:42:14;;;;;;;7.25;2.70;;;14.10;77.90;;;;;;5087404;28;20040;-73
2022/10/01 07:44:40;;;;;;;6.85;2.55;;;14.10;77.80;;;;;;5089424;28;20043;-74
2022/10/01 07:47:05;;;;;;;6.90;3.03;;;14.20;77.90;;;;;;5051543;28;20050;-73
2022/10/01 07:49:31;;;;;;;6.45;2.75;;;14.20;78.10;;;;;;5085233;28;20051;-73
2022/10/01 07:51:57;;;;;;;4.97;2.70;;;14.30;78.40;;;;;;5084893;28;20027;-74
2022/10/01 07:54:24;;;;;;;9.02;2.60;;;14.30;78.30;;;;;;5089386;28;20032;-73
2022/10/01 07:56:54;;;;;;;11.48;2.75;;;14.40;78.40;;;;;;5086082;28;20031;-74
2022/10/01 07:59:21;;;;;;;13.75;3.38;;;14.40;78.60;;;;;;5083346;28;20052;-73
2022/10/01 08:01:50;;;;;;;5.50;3.53;;;14.50;78.60;;;;;;5084268;28;20491;-74
2022/10/01 08:07:00;;;;;;;10.43;2.78;;;14.70;78.70;;;;;;5083489;28;20134;-73
2022/10/01 08:09:26;;;;;;;7.03;2.47;;;14.70;78.60;;;;;;5085054;28;20118;-74
2022/10/01 08:11:52;;;;;;;6.28;2.00;;;14.80;78.40;;;;;;5085349;28;20643;-74
2022/10/01 08:14:19;;;;;;;5.68;1.92;;;14.90;78.30;;;;;;5072631;28;20043;-74
2022/10/01 08:16:44;;;;;;;7.90;2.17;;;15.00;78.50;;;;;;5089342;28;20232;-74
2022/10/01 08:19:11;;;;;;;5.30;1.73;;;15.20;79.00;;;;;;5074381;28;20143;-74
2022/10/01 08:21:36;;;;;;;9.35;2.13;;;15.40;79.10;;;;;;5089893;28;20454;-74
2022/10/01 08:24:03;;;;;;;8.98;2.05;;;15.70;78.70;;;;;;5093161;28;20067;-74
2022/10/01 08:26:30;;;;;;;6.57;1.90;;;16.00;78.10;;;;;;5088843;28;20047;-74
2022/10/01 08:28:56;;;;;;;5.22;1.92;;;16.20;77.70;;;;;;5092066;28;20031;-74
2022/10/01 08:31:22;;;;;;;6.05;1.73;;;16.40;76.30;;;;;;5087509;28;20039;-74
2022/10/01 08:33:47;;;;;;;6.65;1.63;;;16.60;75.40;;;;;;5096507;27;20437;-75
2022/10/01 08:36:14;;;;;;;10.05;2.08;;;16.70;74.40;;;;;;5088580;28;20038;-74
2022/10/01 08:38:39;;;;;;;6.80;1.90;;;16.80;73.80;;;;;;5091210;28;20075;-74
2022/10/01 08:41:50;;;;;;;9.75;2.55;;;16.80;73.10;;;;;;5088462;28;20454;-73
2022/10/01 08:44:20;;;;;;;6.45;1.88;;;16.80;72.60;;;;;;5093348;27;20039;-75
2022/10/01 08:46:47;;;;;;;5.72;1.58;;;16.80;71.90;;;;;;5088066;28;20081;-75
2022/10/01 08:49:23;;;;;;;7.20;1.40;;;16.70;71.50;;;;;;5087856;28;20554;-75
2022/10/01 08:52:03;;;;;;;6.93;1.30;;;16.70;70.80;;;;;;5090234;28;20031;-74
2022/10/01 08:54:47;;;;;;;6.20;1.23;;;16.70;70.30;;;;;;5089016;28;20046;-74
2022/10/01 08:57:17;;;;;;;6.65;1.83;;;16.60;69.90;;;;;;5067246;28;20035;-74
2022/10/01 08:59:52;;;;;;;6.57;1.30;;;16.50;69.90;;;;;;5083504;28;20138;-74
2022/10/01 09:02:20;;;;;;;8.38;1.27;;;16.50;70.40;;;;;;5086155;28;21239;-74
2022/10/01 09:04:49;;;;;;;5.35;1.10;;;16.50;71.30;;;;;;5086348;27;20078;-74
2022/10/01 09:07:53;;;;;;;5.18;0.70;;;16.70;71.60;;;;;;5085496;28;20043;-74
2022/10/01 09:10:24;;;;;;;3.88;1.50;;;16.80;71.20;;;;;;5084046;27;20510;-74
2022/10/01 09:13:05;;;;;;;4.72;1.15;;;16.90;71.00;;;;;;5088057;27;20031;-74
2022/10/01 09:15:34;;;;;;;5.65;1.20;;;17.10;70.50;;;;;;5088513;28;21491;-74
2022/10/01 09:17:59;;;;;;;5.57;0.93;;;17.20;69.80;;;;;;5084909;28;20426;-74
2022/10/01 09:20:33;;;;;;;5.13;0.88;;;17.20;68.90;;;;;;5083220;27;20150;-76
2022/10/01 09:23:15;;;;;;;;;;;17.30;68.30;;;;;;5088738;28;20036;-75
2022/10/01 09:25:42;;;;;;;5.32;1.20;;;17.30;68.10;;;;;;5082357;28;19924;-74
2022/10/01 09:28:18;;;;;;;4.18;1.23;;;17.40;68.40;;;;;;5085073;28;20487;-75
2022/10/01 09:30:59;;;;;;;3.33;1.00;;;17.40;67.50;;;;;;5084351;28;20115;-75
2022/10/01 09:34:01;;;;;;;4.22;0.93;;;17.40;67.10;;;;;;5086702;28;20039;-77
2022/10/01 09:36:40;;;;;;;3.80;0.80;;;17.40;67.00;;;;;;5066895;28;20499;-75
2022/10/01 09:39:39;;;;;;;3.03;0.90;;;17.30;66.90;;;;;;5084979;28;20050;-74
2022/10/01 09:42:05;;;;;;;4.47;0.88;;;17.30;66.80;;;;;;5040134;28;20050;-77
2022/10/01 09:44:32;;;;;;;3.28;0.63;;;17.30;67.00;;;;;;5085792;28;20048;-75
2022/10/01 09:46:58;;;;;;;2.38;0.63;;;17.30;67.50;;;;;;5083368;28;20032;-74
2022/10/01 09:49:30;;;;;;;5.05;0.88;;;17.30;67.80;;;;;;5083989;28;20363;-75
2022/10/01 09:52:13;;;;;;;3.72;0.95;;;17.30;68.00;;;;;;5083466;27;20486;-75
2022/10/01 09:54:49;;;;;;;3.92;1.23;;;17.30;68.60;;;;;;5083895;28;20036;-76
2022/10/01 09:57:27;;;;;;;4.78;1.30;;;17.40;69.40;;;;;;5085716;28;20039;-76
2022/10/01 10:00:00;;;;;;;6.95;1.40;;;17.40;69.60;;;;;;5085342;28;20379;-76
2022/10/01 10:02:36;;;;;;;5.05;1.45;;;17.50;69.30;;;;;;5087588;28;20375;-75
2022/10/01 10:05:08;;;;;;;7.97;2.05;;;17.50;69.30;;;;;;5085635;27;20043;-74
2022/10/01 10:07:35;;;;;;;6.35;1.50;;;17.70;69.20;;;;;;5082791;28;20388;-75
2022/10/01 10:10:38;;;;;;;8.05;1.85;;;17.70;69.20;;;;;;5085233;27;20427;-74
2022/10/01 10:13:10;;;;;;;8.63;2.70;;;17.70;68.90;;;;;;5066758;28;20039;-74
2022/10/01 10:15:57;;;;;;;5.50;1.40;;;17.70;68.70;;;;;;5085686;28;20036;-77
2022/10/01 10:18:34;;;;;;;7.00;1.70;;;17.60;68.00;;;;;;5088794;28;20031;-79
2022/10/01 10:21:15;;;;;;;5.57;1.73;;;17.60;67.90;;;;;;5074024;27;20024;-80
2022/10/01 10:23:58;;;;;;;6.32;1.58;;;17.50;68.20;;;;;;5058458;28;20110;-77
2022/10/01 10:26:34;;;;;;;9.90;2.42;;;17.40;68.30;;;;;;5069208;28;20479;-79
2022/10/01 10:29:01;;;;;;;13.25;2.20;;;17.40;68.40;;;;;;5085468;28;20048;-79
2022/10/01 10:31:45;;;;;;;6.25;1.63;;;17.30;68.70;;;;;;5080191;28;20044;-78
2022/10/01 10:34:19;;;;;;;10.50;2.58;;;17.30;69.00;;;;;;5086296;28;20032;-78
2022/10/01 10:36:45;;;;;;;7.95;1.63;;;17.20;69.40;;;;;;5081966;28;20044;-78
2022/10/01 10:39:23;;;;;;;9.88;2.15;;;17.00;69.40;;;;;;5067899;28;20518;-77
2022/10/01 10:41:50;;;;;;;7.22;1.88;;;16.90;69.40;;;;;;5083768;28;20044;-79
2022/10/01 10:44:20;;;;;;;6.70;1.27;;;16.80;69.00;;;;;;5071840;28;20043;-77
2022/10/01 10:46:47;;;;;;;4.85;1.45;;;16.60;68.40;;;;;;5065255;28;20120;-78
2022/10/01 10:49:22;;;;;;;5.65;1.13;;;16.50;68.60;;;;;;5087302;28;20075;-78
2022/10/01 10:51:52;;;;;;;7.47;1.73;;;16.30;68.80;;;;;;5086576;28;20047;-77
2022/10/01 10:54:30;;;;;;;7.28;1.40;;;16.20;69.20;;;;;;5067288;28;20409;-77
2022/10/01 10:57:16;;;;;;;9.32;1.67;;;16.10;69.60;;;;;;5070877;28;20051;-77
2022/10/01 11:00:00;;;;;;;6.50;1.65;;;16.00;70.10;;;;;;5067128;28;20036;-78
2022/10/01 11:02:29;;;;;;;6.75;1.40;;;15.90;70.60;;;;;;5085910;28;20116;-82
2022/10/01 11:04:58;;;;;;;7.38;1.80;;;15.80;70.80;;;;;;5089316;28;20039;-78
2022/10/01 11:07:26;;;;;;;3.83;0.90;;;15.70;71.10;;;;;;5086937;28;20510;-76
2022/10/01 11:10:17;;;;;;;7.85;1.35;;;15.70;71.40;;;;;;5080995;28;20036;-76
2022/10/01 11:13:05;;;;;;;5.05;1.00;;;15.60;71.50;;;;;;5085535;28;20043;-73
2022/10/01 11:15:40;;;;;;;7.70;1.77;;;15.50;71.70;;;;;;5084354;28;20074;-72
2022/10/01 11:18:35;;;;;;;4.65;1.33;;;15.50;71.90;;;;;;5083077;28;20449;-73
2022/10/01 11:21:22;;;;;;;5.63;1.42;;;15.50;71.90;;;;;;5095465;28;20042;-72
2022/10/01 11:24:25;;;;;;;6.70;2.03;;;15.50;72.30;;;;;;5093570;28;20508;-73
2022/10/01 11:27:09;;;;;;;6.78;1.80;;;15.50;72.80;;;;;;5085186;28;20175;-74
2022/10/01 11:29:53;;;;;;;8.68;1.77;;;15.50;73.50;;;;;;5089172;28;20123;-74
2022/10/01 11:32:54;;;;;;;7.30;1.77;;;15.50;73.80;;;;;;5089156;28;20111;-74
2022/10/01 11:35:55;;;;;;;8.98;1.60;;;15.60;74.10;;;;;;5090101;28;20071;-75
2022/10/01 11:38:55;;;;;;;8.40;1.95;;;15.70;74.60;;;;;;5086794;28;20044;-73
2022/10/01 11:41:37;;;;;;;9.25;1.85;;;15.80;74.50;;;;;;5071486;28;20059;-74
2022/10/01 11:44:23;;;;;;;8.77;1.80;;;15.80;74.60;;;;;;5084762;28;20487;-73
2022/10/01 11:46:55;;;;;;;8.07;2.30;;;15.90;74.70;;;;;;5085638;28;20083;-73
2022/10/01 11:49:37;;;;;;;7.70;1.83;;;16.00;74.70;;;;;;5085226;28;20190;-73
2022/10/01 11:52:28;;;;;;;9.77;2.20;;;16.10;74.40;;;;;;5085039;28;20043;-72
2022/10/01 11:58:49;;;;;;;11.10;2.10;;;16.10;74.00;;;;;;5085413;28;20032;-71
2022/10/01 12:00:38;;;;;;;12.85;2.25;;;16.20;72.80;;;;;;5085166;28;19923;-74
2022/10/01 12:03:15;;;;;;;7.35;2.70;;;16.20;72.60;;;;;;5053430;28;20051;-73
2022/10/01 12:05:41;;;;;;;10.70;2.10;;;16.20;72.30;;;;;;5083479;28;20546;-72
2022/10/01 12:08:30;;;;;;;9.90;2.10;;;16.20;72.10;;;;;;5080557;28;20063;-72
2022/10/01 12:11:05;;;;;;;9.27;2.28;;;16.20;71.90;;;;;;5085506;28;20127;-74
2022/10/01 12:13:36;;;;;;;11.18;1.80;;;16.20;71.20;;;;;;5084605;28;20048;-73
2022/10/01 12:16:45;;;;;;;11.48;2.30;;;16.20;71.20;;;;;;5083650;28;20032;-72
2022/10/01 12:19:20;;;;;;;10.77;2.38;;;16.20;71.30;;;;;;5065321;28;20047;-72
2022/10/01 12:21:56;;;;;;;10.10;2.45;;;16.20;71.40;;;;;;5068028;28;20047;-73
2022/10/01 12:24:27;;;;;;;9.80;2.08;;;16.30;71.10;;;;;;5082507;28;20043;-72
2022/10/01 12:27:14;;;;;;;9.32;2.53;;;16.30;70.80;;;;;;5066297;28;20052;-72
2022/10/01 12:29:48;;;;;;;12.23;2.00;;;16.40;70.20;;;;;;5081642;28;20134;-72
2022/10/01 12:32:46;;;;;;;12.10;2.70;;;16.40;69.70;;;;;;5083678;28;20036;-72
2022/10/01 12:35:46;;;;;;;13.88;2.67;;;16.40;69.20;;;;;;5081257;28;20067;-72
2022/10/01 12:38:43;;;;;;;10.90;2.22;;;16.30;68.70;;;;;;5083235;28;20040;-73
2022/10/01 12:41:18;;;;;;;9.77;2.20;;;16.30;68.50;;;;;;5066805;28;20094;-71
2022/10/01 12:44:07;;;;;;;11.15;2.28;;;16.30;68.60;;;;;;5084947;28;20032;-72
2022/10/01 12:46:40;;;;;;;13.88;2.50;;;16.30;68.20;;;;;;5068057;28;20041;-72
2022/10/01 12:49:21;;;;;;;13.10;2.45;;;16.30;68.80;;;;;;5084958;28;20035;-72
2022/10/01 12:51:55;;;;;;;9.98;2.22;;;16.30;68.90;;;;;;5086067;28;20051;-73
2022/10/01 12:54:58;;;;;;;12.15;2.20;;;16.30;68.90;;;;;;5085013;28;20040;-72
2022/10/01 12:57:47;;;;;;;7.75;1.77;;;16.40;68.40;;;;;;5079542;28;20075;-75
2022/10/01 13:00:21;;;;;;;11.30;2.92;;;16.40;67.70;;;;;;5083332;28;20043;-73
2022/10/01 13:03:11;;;;;;;11.60;2.53;;;16.30;67.70;;;;;;5070014;28;20040;-75
2022/10/01 13:06:09;;;;;;;12.48;2.30;;;16.40;67.50;;;;;;5088874;28;20040;-74
2022/10/01 13:09:09;;;;;;;12.73;2.30;;;16.30;67.50;;;;;;5073898;28;20086;-77
2022/10/01 13:12:04;;;;;;;13.85;2.22;;;16.40;67.40;;;;;;5049535;28;20103;-77
2022/10/01 13:14:32;;;;;;;10.57;2.55;;;16.40;67.00;;;;;;5089127;28;20433;-76
2022/10/01 13:17:08;;;;;;;10.88;2.78;;;16.40;67.00;;;;;;5084611;28;20135;-77